x

Nickerson Bank (44251) Wave Buoy

7:00am - Tue 16th Sep 2014 All times are UTC.

  • Sig Wave height 4.9ft
  • Peak Period 8s
  • Wind
    13mph, 16mph gusts
  • Sea Temp 59°f
  • Air Temp 56°f
  • Sea Pressure 1013.1mb

More Historic Weather Station data

Upgrade to MSW Pro to gain access to the past 30 days of data for over 8000 Wavebouys and Weather Stations around the globe.

Join Pro

Comparision Forecast

View Surf forecast
   
Tue 09/16 7:00am 5ft 8s 13 16 mph 1013.1mb 59f 56f
6:00am 4.5ft 7s 13 16 mph 1013.2mb 59f 56f
5:00am 5ft 7s 13 16 mph 1013.3mb 59f 55f
4:00am 5ft 8s 13 18 mph 1013.3mb 59f 56f
3:00am 5ft 8s 16 18 mph 1013mb 59f 56f
2:00am 6ft 7s 18 22 mph 1013.5mb 59f 55f
1:00am 6.5ft 8s 13 18 mph 1013.5mb 59f 57f
12:00am 6.5ft 8s 16 18 mph 1013.1mb 60f 57f
Mon 09/15 11:00pm 7ft 8s 9 11 mph 1013.2mb 60f 58f
10:00pm 7ft 9s 11 13 mph 1012.6mb 60f 59f
9:00pm 7ft 9s 2 4 mph 1012.1mb 60f 58f
8:00pm 7.5ft 9s 2 4 mph 1011.7mb 60f 58f
7:00pm 7ft 8s 2 4 mph 1011.7mb 60f 58f
6:00pm 8ft 8s 4 7 mph 1011.3mb 59f 58f
5:00pm 8ft 8s 7 9 mph 1011.4mb 59f 58f
4:00pm 8ft 9s 7
mph
1011.7mb 59f 58f
3:00pm 8.5ft 9s 11 13 mph 1011.8mb 59f 58f
2:00pm 8.5ft 9s 13 16 mph 1012.4mb 59f 57f
1:00pm 9.5ft 9s 11 18 mph 1012.6mb 59f 57f
12:00pm 10ft 10s 13 16 mph 1012.4mb 59f 57f
11:00am 11ft 9s 16 18 mph 1012.1mb 58f 57f
10:00am 12.5ft 9s 16 18 mph 1012.4mb 59f 57f
9:00am 12.5ft 9s 18 20 mph 1012.3mb 59f 57f
8:00am 12ft 10s 20 22 mph 1012.4mb 59f 57f
7:00am 12ft 9s 25 31 mph 1012.8mb 59f 57f
6:00am 11ft 9s 25 31 mph 1013.6mb 59f 57f
5:00am 11ft 8s 27 31 mph 1014.8mb 59f 56f
4:00am 10ft 8s 27 34 mph 1015.7mb 59f 55f
3:00am 10.5ft 8s 27 34 mph 1016.7mb 59f 55f
2:00am 9ft 8s 27 34 mph 1018.2mb 59f 55f
1:00am 9ft 7s 27 31 mph 1019.2mb 59f 54f
12:00am 9ft 7s 22 31 mph 1020.5mb 59f 54f
Sun 09/14 11:00pm 8ft 7s 27 34 mph 1020.1mb 59f 55f
10:00pm 7.5ft 7s 25 29 mph 1021.1mb 58f 56f
9:00pm 7ft 6s 20 25 mph 1022.7mb 59f 57f
8:00pm 7ft 6s 20 27 mph 1022.5mb 59f 57f
7:00pm 5.5ft 6s 18 25 mph 1023.5mb 59f 57f
6:00pm 5ft 5s 22 27 mph 1023.8mb 59f 56f
5:00pm 5ft 5s 18 22 mph 1025.4mb 59f 57f
4:00pm 4.5ft 5s 20 25 mph 1025.5mb 59f 57f
3:00pm 4ft 5s 22 27 mph 1026.1mb 59f 57f
2:00pm 3.5ft 4s 22 29 mph 1027.4mb 59f 56f
1:00pm 3.5ft 8s 20 22 mph 1029.7mb 59f 56f
12:00pm 3.5ft 8s 16 20 mph 1030.9mb 59f 56f
11:00am 3.5ft 8s 16 18 mph 1030.3mb 59f 56f
10:00am 3.5ft 8s 13 18 mph 1030.5mb 59f 56f
9:00am 3.5ft 8s 18 20 mph 1029.8mb 59f 55f
8:00am 3.5ft 9s 16 18 mph 1029.8mb 59f 55f
7:00am 3.5ft 9s 13 18 mph 1030.4mb 58f 55f
6:00am 3ft 8s 13 16 mph 1030.6mb 58f 55f
5:00am 3.5ft 8s 13
mph
1030.7mb 58f 55f
4:00am 3.5ft 7s 13 16 mph 1030.9mb 58f 55f
3:00am 3.5ft 7s 13
mph
1030.8mb 58f 55f
2:00am 3ft 8s 13 16 mph 1030.7mb 58f 55f
1:00am 3.5ft 8s 13 16 mph 1030.5mb 59f 55f
12:00am 3.5ft 8s 11 13 mph 1029.9mb 59f 55f
Sat 09/13 11:00pm 3.5ft 9s 13 16 mph 1029.9mb 59f 55f
10:00pm 3.5ft 9s 16 18 mph 1028.6mb 59f 56f
9:00pm 3.5ft 10s 9 11 mph 1028mb 59f 58f
8:00pm 3.5ft 10s 16 18 mph 1027.3mb 59f 57f
7:00pm 4ft 8s 16 20 mph 1026.7mb 59f 56f
6:00pm 4.5ft 8s 16 18 mph 1026.2mb 59f 56f
5:00pm 4.5ft 8s 16 18 mph 1026.1mb 59f 55f
4:00pm 4.5ft 9s 13 18 mph 1025.6mb 58f 55f
3:00pm 4.5ft 8s 11 16 mph 1025.2mb 58f 54f
2:00pm 4.5ft 8s 7 9 mph 1024.8mb 58f 53f
1:00pm 4.5ft 10s 13 16 mph 1023.9mb 58f 53f
12:00pm 5ft 8s 16 20 mph 1022.7mb 59f 53f
11:00am 5ft 10s 18 22 mph 1021.5mb 59f 53f
10:00am 5.5ft 9s 18 22 mph 1020.5mb 59f 53f
9:00am 5.5ft 8s 18 20 mph 1019.1mb 59f 53f
8:00am 5.5ft 8s 20 22 mph 1017.3mb 60f 54f
7:00am 6ft 9s 22 27 mph 1016.2mb 60f 56f
6:00am 6ft 10s 20 25 mph 1015.3mb 60f 56f
5:00am 6.5ft 7s 25 29 mph 1014.1mb 59f 57f
4:00am 7.5ft 6s 22 27 mph 1013.1mb 60f 57f
3:00am 7ft 10s 22 29 mph 1012.2mb 60f 58f
2:00am 6.5ft 9s 27 34 mph 1011.4mb 60f 58f
1:00am 6ft 9s 25 31 mph 1010.6mb 60f 59f
12:00am 6ft 10s 25 29 mph 1009.8mb 60f 60f
Fri 09/12 11:00pm 6ft 9s 20 25 mph 1009.3mb 60f 61f
10:00pm 6ft 8s 16 18 mph 1008.5mb 60f 61f
9:00pm 6ft 8s 16 18 mph 1008.1mb 60f 61f
8:00pm 6.5ft 8s 16 18 mph 1007.9mb 60f 60f
7:00pm 6.5ft 10s 11 13 mph 1007.9mb 60f 60f
6:00pm 6.5ft 10s 13 16 mph 1008.3mb 60f 60f
5:00pm 7ft 9s 13 16 mph 1008.4mb 60f 60f
4:00pm 7.5ft 9s 9
mph
1008.6mb 60f 59f
3:00pm 8ft 9s 11 16 mph 1008.8mb 60f 59f
2:00pm 7.5ft 9s 4 7 mph 1009mb 60f 59f
1:00pm 8ft 9s  -  2 mph 1009.2mb 59f 59f
12:00pm 7.5ft 9s 2 4 mph 1009.7mb 59f 58f
11:00am 8ft 9s 7 9 mph 1009.9mb 59f 58f
10:00am 8ft 8s 4 7 mph 1010.6mb 59f 58f
9:00am 7.5ft 9s 9 11 mph 1010.5mb 59f 58f